Time;durP1;ratioP1;P1;durP2;ratioP2;P2;SDS_P1;SDS_P2;PMS_P1;PMS_P2;Temp;Humidity;BMP_temperature;BMP_pressure;BME280_temperature;BME280_humidity;BME280_pressure;Samples;Min_cycle;Max_cycle;Signal;HPM_P1;HPM_P2
2021/12/25 00:01:15;;;;;;;25.38;11.88;;;;;;;-19.06;61.33;100713.00;4938749;29;20110;-85
2021/12/25 00:03:41;;;;;;;32.97;15.50;;;;;;;-19.07;61.53;100725.66;4938717;29;20047;-84
2021/12/25 00:06:07;;;;;;;29.52;14.52;;;;;;;-19.13;61.39;100718.53;4956561;29;20046;-85
2021/12/25 00:08:33;;;;;;;23.40;11.23;;;;;;;-19.13;61.34;100700.69;4956756;29;20089;-84
2021/12/25 00:10:59;;;;;;;19.15;9.35;;;;;;;-19.16;61.32;100713.25;4938519;29;20039;-84
2021/12/25 00:13:25;;;;;;;34.10;15.98;;;;;;;-19.18;61.36;100719.91;4938375;29;20454;-84
2021/12/25 00:15:51;;;;;;;22.40;11.50;;;;;;;-19.26;61.19;100710.91;4922175;29;20051;-85
2021/12/25 00:18:18;;;;;;;20.15;10.27;;;;;;;-19.26;61.31;100726.22;4949730;29;20058;-85
2021/12/25 00:20:44;;;;;;;22.92;11.63;;;;;;;-19.28;61.51;100736.31;4916012;29;20422;-87
2021/12/25 00:23:10;;;;;;;20.58;7.28;;;;;;;-19.37;61.30;100734.06;4906457;29;20043;-84
2021/12/25 00:25:41;;;;;;;26.88;11.15;;;;;;;-19.44;61.48;100731.06;4921794;29;20043;-86
2021/12/25 00:28:34;;;;;;;15.50;9.25;;;;;;;-19.39;61.93;100733.09;4892362;29;20126;-86
2021/12/25 00:36:01;;;;;;;7.18;4.43;;;;;;;-19.39;61.22;100728.03;4954584;29;20074;-86
2021/12/25 00:38:27;;;;;;;7.63;5.78;;;;;;;-19.33;61.38;100741.91;4938770;29;20051;-85
2021/12/25 00:40:53;;;;;;;6.68;3.60;;;;;;;-19.45;61.18;100721.66;4951485;29;20114;-85
2021/12/25 00:43:19;;;;;;;9.07;5.35;;;;;;;-19.33;61.12;100734.25;4939186;29;20043;-85
2021/12/25 00:45:47;;;;;;;8.27;5.20;;;;;;;-19.27;61.16;100737.19;4940577;29;20043;-84
2021/12/25 00:48:13;;;;;;;7.93;5.20;;;;;;;-19.37;61.07;100734.06;4961525;28;20053;-85
2021/12/25 00:50:39;;;;;;;12.77;7.30;;;;;;;-19.38;60.83;100733.97;4926914;29;20133;-85
2021/12/25 00:53:05;;;;;;;11.73;6.63;;;;;;;-19.32;61.18;100734.38;4959916;29;20051;-85
2021/12/25 00:55:31;;;;;;;25.25;6.57;;;;;;;-19.28;61.38;100735.44;4942430;29;20051;-83
2021/12/25 00:57:57;;;;;;;6.57;4.78;;;;;;;-19.29;61.31;100736.19;4943592;29;20051;-85
2021/12/25 01:00:23;;;;;;;13.23;5.88;;;;;;;-19.28;61.16;100741.41;4947767;29;20067;-85
2021/12/25 01:02:49;;;;;;;10.77;7.00;;;;;;;-19.35;61.12;100744.38;4947862;29;20075;-84
2021/12/25 01:05:16;;;;;;;19.80;9.98;;;;;;;-19.33;61.69;100736.81;4929988;29;20047;-84
2021/12/25 01:07:42;;;;;;;21.33;8.90;;;;;;;-19.24;61.33;100737.38;4931031;29;20051;-85
2021/12/25 01:10:15;;;;;;;11.95;7.35;;;;;;;-19.09;61.79;100737.44;4942393;29;20051;-84
2021/12/25 01:12:58;;;;;;;17.25;8.15;;;;;;;-19.09;61.48;100738.31;4940816;29;20133;-86
2021/12/25 01:15:34;;;;;;;19.17;8.63;;;;;;;-18.99;61.24;100734.63;4926749;29;20043;-84
2021/12/25 01:48:37;;;;;;;16.33;7.22;;;;;;;-18.77;60.81;100757.16;4930280;29;20051;-84
2021/12/25 01:51:03;;;;;;;26.50;7.97;;;;;;;-18.77;60.71;100750.41;4940070;29;20058;-86
2021/12/25 01:53:29;;;;;;;19.67;11.07;;;;;;;-18.83;60.66;100731.34;4924072;29;20058;-84
2021/12/25 01:55:57;;;;;;;10.05;8.27;;;;;;;-18.74;60.75;100744.63;4924751;29;20103;-86
2021/12/25 01:58:23;;;;;;;28.88;11.07;;;;;;;-18.65;60.76;100733.25;4924096;29;20050;-84
2021/12/25 02:00:52;;;;;;;15.98;8.73;;;;;;;-18.55;60.88;100744.84;4924242;29;20125;-84
2021/12/25 02:03:19;;;;;;;16.00;9.00;;;;;;;-18.52;60.38;100734.84;4939376;29;20098;-86
2021/12/25 02:05:45;;;;;;;8.68;5.60;;;;;;;-18.47;60.32;100743.63;4924796;29;20534;-83
2021/12/25 02:08:11;;;;;;;6.78;4.28;;;;;;;-18.43;60.37;100735.34;4924333;29;20079;-83
2021/12/25 02:10:38;;;;;;;20.30;7.40;;;;;;;-18.36;60.20;100735.72;4908160;29;20050;-84
2021/12/25 02:13:04;;;;;;;16.42;8.43;;;;;;;-18.43;59.85;100732.81;4908608;29;20137;-85
2021/12/25 02:15:31;;;;;;;11.02;7.90;;;;;;;-18.42;60.22;100742.25;4923847;29;20039;-86
2021/12/25 02:23:23;;;;;;;13.10;7.65;;;;;;;-18.61;59.71;100721.56;4924300;29;20055;-85
2021/12/25 02:25:50;;;;;;;26.55;10.55;;;;;;;-18.56;60.06;100726.94;4923557;29;20454;-85
2021/12/25 02:28:16;;;;;;;19.15;11.20;;;;;;;-18.68;59.88;100727.09;4907521;29;20066;-88
2021/12/25 02:30:43;;;;;;;13.68;6.07;;;;;;;-18.69;59.85;100735.53;4908272;29;20047;-89
2021/12/25 02:33:09;;;;;;;14.32;9.23;;;;;;;-18.81;59.69;100739.94;4956315;29;20416;-87
2021/12/25 02:35:36;;;;;;;18.60;8.13;;;;;;;-18.90;59.74;100736.06;4958262;29;20047;-84
2021/12/25 02:38:02;;;;;;;34.35;13.38;;;;;;;-18.99;59.45;100730.44;4923632;29;20491;-87
2021/12/25 02:40:28;;;;;;;13.05;9.30;;;;;;;-19.00;59.94;100749.03;4903883;29;20396;-86
2021/12/25 02:42:54;;;;;;;24.88;12.57;;;;;;;-19.09;59.89;100733.22;4903934;29;20178;-87
2021/12/25 02:45:21;;;;;;;46.42;19.92;;;;;;;-19.14;60.18;100752.41;4937555;29;20043;-87
2021/12/25 02:47:49;;;;;;;10.75;5.97;;;;;;;-19.16;60.25;100748.91;4889545;29;20095;-88
2021/12/25 02:50:41;;;;;;;29.13;17.00;;;;;;;-19.15;60.10;100750.66;4905126;29;20499;-85
2021/12/25 02:53:09;;;;;;;23.73;11.95;;;;;;;-19.19;59.91;100758.91;4901979;29;20130;-86
2021/12/25 02:55:38;;;;;;;20.73;6.78;;;;;;;-19.31;59.29;100765.81;4920551;29;20187;-85
2021/12/25 02:58:04;;;;;;;17.38;7.68;;;;;;;-19.48;59.85;100762.22;4904490;29;20496;-86
2021/12/25 03:00:35;;;;;;;16.52;7.88;;;;;;;-19.53;60.02;100761.94;4904878;29;20118;-88
2021/12/25 03:03:03;;;;;;;17.58;8.30;;;;;;;-19.58;60.31;100744.63;4904352;29;20103;-86
2021/12/25 03:05:29;;;;;;;15.90;9.70;;;;;;;-19.56;60.03;100758.31;4936631;29;20559;-87
2021/12/25 03:07:55;;;;;;;22.58;11.93;;;;;;;-19.69;60.20;100738.91;4921261;29;20495;-86
2021/12/25 03:10:24;;;;;;;15.90;9.20;;;;;;;-19.63;60.35;100754.53;4911544;29;20159;-85
2021/12/25 03:13:05;;;;;;;23.80;11.93;;;;;;;-19.71;60.56;100764.25;4926946;29;20648;-84
2021/12/25 03:15:45;;;;;;;21.83;10.40;;;;;;;-19.72;60.50;100749.75;4923366;29;20098;-84
2021/12/25 03:18:24;;;;;;;;;;;;;;;-19.72;60.42;100756.53;4906370;29;20043;-86
2021/12/25 03:20:53;;;;;;;10.35;5.07;;;;;;;-19.81;60.32;100748.31;4888184;29;19957;-84
2021/12/25 03:23:21;;;;;;;11.05;7.75;;;;;;;-19.83;60.67;100749.88;4903531;29;20499;-85
2021/12/25 03:25:49;;;;;;;18.27;7.80;;;;;;;-19.90;60.68;100739.28;4935919;29;20526;-84
2021/12/25 03:28:16;;;;;;;12.18;6.63;;;;;;;-19.84;60.45;100745.56;4904567;29;20063;-87
2021/12/25 03:30:43;;;;;;;10.95;7.13;;;;;;;-19.95;60.33;100745.78;4904471;29;20114;-85
2021/12/25 03:33:15;;;;;;;9.05;5.85;;;;;;;-20.06;60.37;100748.41;4919290;29;20055;-85
2021/12/25 03:35:41;;;;;;;11.45;7.00;;;;;;;-20.21;60.69;100730.50;4903116;29;20047;-85
2021/12/25 03:38:11;;;;;;;15.27;6.82;;;;;;;-20.20;60.71;100747.53;4936031;29;20043;-86
2021/12/25 03:40:37;;;;;;;8.00;5.03;;;;;;;-20.23;60.60;100742.22;4919253;29;20562;-86
2021/12/25 03:43:03;;;;;;;5.20;3.55;;;;;;;-20.31;60.53;100751.91;4934645;29;20134;-86
2021/12/25 03:45:31;;;;;;;11.45;7.63;;;;;;;-20.42;60.82;100746.16;4903479;29;20043;-86
2021/12/25 03:48:10;;;;;;;16.05;7.03;;;;;;;-20.59;61.25;100749.28;4903943;29;20063;-87
2021/12/25 03:58:33;;;;;;;7.70;2.97;;;;;;;-20.59;61.36;100753.47;4890185;29;20047;-86
2021/12/25 04:01:10;;;;;;;4.05;3.35;;;;;;;-20.71;61.22;100751.00;4903746;29;20463;-86
2021/12/25 04:03:50;;;;;;;7.25;5.78;;;;;;;-20.64;61.47;100760.81;4905041;29;20040;-84
2021/12/25 04:06:16;;;;;;;4.38;3.97;;;;;;;-20.58;61.42;100765.41;4903978;29;20654;-85
2021/12/25 04:08:45;;;;;;;12.50;4.57;;;;;;;-20.75;61.92;100782.09;4903532;29;20051;-85
2021/12/25 04:11:15;;;;;;;7.13;5.80;;;;;;;-20.73;61.54;100777.97;4935591;29;20059;-85
2021/12/25 04:13:41;;;;;;;4.38;3.25;;;;;;;-20.66;61.79;100788.66;4903713;29;20048;-84
2021/12/25 04:16:07;;;;;;;3.92;3.20;;;;;;;-20.57;61.79;100803.63;4903977;29;20502;-86
2021/12/25 04:18:33;;;;;;;7.30;4.82;;;;;;;-20.65;61.38;100795.47;4918306;29;20147;-83
2021/12/25 04:20:59;;;;;;;4.97;3.95;;;;;;;-20.77;61.67;100792.13;4887307;29;20042;-80
2021/12/25 04:23:28;;;;;;;4.22;3.88;;;;;;;-20.68;61.99;100814.72;4919590;29;20130;-89
2021/12/25 04:25:56;;;;;;;2.63;2.45;;;;;;;-20.60;61.81;100818.69;4911162;29;20056;-82
2021/12/25 04:28:38;;;;;;;4.65;4.25;;;;;;;-20.56;61.88;100814.69;4907633;29;20059;-86
2021/12/25 05:04:28;;;;;;;6.45;5.32;;;;;;;-20.27;62.65;100854.72;4933995;29;20059;-82
2021/12/25 05:07:14;;;;;;;4.85;3.63;;;;;;;-20.29;61.73;100848.66;4940024;29;20043;-81
2021/12/25 05:09:40;;;;;;;5.57;4.40;;;;;;;-20.19;61.08;100851.06;4955864;28;20054;-81
2021/12/25 05:12:07;;;;;;;13.38;7.15;;;;;;;-20.13;60.78;100853.97;4940289;29;20488;-78
2021/12/25 05:14:34;;;;;;;13.18;6.55;;;;;;;-20.12;60.29;100841.38;4939764;29;20055;-79
2021/12/25 05:17:00;;;;;;;6.68;5.45;;;;;;;-19.99;60.34;100837.97;4924446;29;20078;-79
2021/12/25 05:19:26;;;;;;;15.98;10.05;;;;;;;-20.05;59.97;100831.59;4923844;29;20051;-82
2021/12/25 05:21:52;;;;;;;15.43;9.95;;;;;;;-20.07;59.83;100839.13;4908293;29;20078;-86
2021/12/25 05:24:20;;;;;;;10.13;6.40;;;;;;;-20.07;59.50;100834.03;4939397;29;20051;-81
2021/12/25 05:26:56;;;;;;;21.63;11.23;;;;;;;-19.99;59.55;100843.03;4909927;29;20043;-83
2021/12/25 05:29:24;;;;;;;14.07;7.93;;;;;;;-19.94;59.07;100831.50;4939246;29;20086;-87
2021/12/25 05:31:51;;;;;;;14.15;6.35;;;;;;;-19.98;58.94;100837.16;4924829;29;20058;-85
2021/12/25 05:34:17;;;;;;;13.50;7.43;;;;;;;-19.99;59.23;100840.50;4924908;29;20550;-84
2021/12/25 05:37:04;;;;;;;9.57;6.97;;;;;;;-20.06;59.16;100817.97;4949992;29;20514;-84
2021/12/25 05:39:36;;;;;;;17.70;8.23;;;;;;;-19.84;58.64;100829.56;4926964;29;20085;-81
2021/12/25 05:42:04;;;;;;;14.85;8.05;;;;;;;-19.73;58.86;100819.28;4939629;29;20043;-81
2021/12/25 05:44:30;;;;;;;14.00;7.85;;;;;;;-19.69;58.54;100820.34;4908141;29;20074;-83
2021/12/25 05:47:28;;;;;;;20.45;11.95;;;;;;;-19.80;58.44;100821.34;4957180;29;20059;-88
2021/12/25 05:50:15;;;;;;;4.30;3.05;;;;;;;-19.94;58.74;100808.59;4922602;29;20059;-85
2021/12/25 05:52:59;;;;;;;8.90;6.00;;;;;;;-19.73;58.33;100826.91;4956230;29;20055;-84
2021/12/25 05:55:48;;;;;;;;;;;;;;;-19.59;58.20;100832.88;4956940;29;20113;-85
2021/12/25 05:58:20;;;;;;;10.27;4.22;;;;;;;-19.66;57.80;100823.09;4940320;29;19925;-79
2021/12/25 06:01:05;;;;;;;6.07;5.03;;;;;;;-19.71;58.18;100799.88;4926354;29;20050;-84
2021/12/25 06:03:31;;;;;;;8.77;4.88;;;;;;;-19.55;58.35;100801.72;4923901;29;20047;-84
2021/12/25 06:05:57;;;;;;;3.72;3.45;;;;;;;-19.66;57.77;100795.09;4950204;29;20043;-85
2021/12/25 06:08:25;;;;;;;19.00;8.48;;;;;;;-19.58;58.31;100791.34;4942249;29;20503;-89
2021/12/25 06:10:51;;;;;;;13.23;8.15;;;;;;;-19.50;58.13;100805.41;4924137;29;20069;-79
2021/12/25 06:13:20;;;;;;;10.65;6.13;;;;;;;-19.64;58.08;100806.25;4938457;29;20051;-80
2021/12/25 06:15:47;;;;;;;17.45;5.85;;;;;;;-19.61;57.79;100816.59;4939340;29;20051;-82
2021/12/25 06:18:24;;;;;;;7.50;5.70;;;;;;;-19.56;57.91;100810.13;4923390;29;20055;-80
2021/12/25 06:21:09;;;;;;;4.60;2.42;;;;;;;-19.42;58.24;100822.06;4926192;29;20133;-83
2021/12/25 06:24:07;;;;;;;12.55;6.95;;;;;;;-19.32;57.70;100805.69;4896324;29;20051;-83
2021/12/25 06:26:55;;;;;;;;;;;;;;;-19.17;57.50;100805.75;4932638;29;20058;-85
2021/12/25 06:29:51;;;;;;;14.10;5.78;;;;;;;-19.08;57.04;100805.44;4865004;29;19934;-80
2021/12/25 06:32:48;;;;;;;5.65;4.70;;;;;;;-19.15;56.92;100793.97;4926755;29;20043;-83
2021/12/25 06:35:33;;;;;;;18.75;5.97;;;;;;;-19.29;56.84;100784.59;4938541;29;20134;-92
2021/12/25 06:38:14;;;;;;;11.45;5.28;;;;;;;-19.27;56.84;100799.22;4871163;29;20053;-93
2021/12/25 06:41:01;;;;;;;12.70;4.40;;;;;;;-19.31;56.60;100806.56;4910052;29;20067;-84
2021/12/25 06:43:27;;;;;;;7.05;4.55;;;;;;;-19.26;56.80;100805.19;4919518;29;20464;-83
2021/12/25 06:45:54;;;;;;;9.15;5.15;;;;;;;-19.27;56.30;100813.63;4888651;29;20047;-89
2021/12/25 06:48:20;;;;;;;10.43;2.97;;;;;;;-19.31;56.52;100821.84;4904035;29;20051;-87
2021/12/25 06:51:18;;;;;;;6.30;5.07;;;;;;;-19.51;56.61;100810.44;4921795;29;20052;-87
2021/12/25 06:53:51;;;;;;;10.05;4.53;;;;;;;-19.33;56.36;100824.28;4928157;29;20047;-89
2021/12/25 06:56:44;;;;;;;9.27;6.65;;;;;;;-19.34;55.82;100812.34;4929310;29;20108;-83
2021/12/25 06:59:16;;;;;;;7.20;5.85;;;;;;;-19.42;55.31;100819.50;4904896;29;20047;-87
2021/12/25 07:01:45;;;;;;;9.07;6.13;;;;;;;-19.33;55.29;100818.31;4917409;29;20107;-84
2021/12/25 07:04:31;;;;;;;8.27;5.07;;;;;;;-19.27;55.12;100827.22;4942701;28;20043;-85
2021/12/25 07:07:24;;;;;;;12.52;5.55;;;;;;;-19.29;55.02;100820.25;4916792;29;20065;-85
2021/12/25 07:10:13;;;;;;;8.75;5.40;;;;;;;-19.21;56.93;100819.97;4890522;28;20515;-82
2021/12/25 07:13:07;;;;;;;2.88;2.60;;;;;;;-19.07;55.69;100827.56;4925809;29;20392;-93
2021/12/25 07:15:35;;;;;;;15.15;8.13;;;;;;;-19.09;55.31;100835.13;4877277;29;20426;-78
2021/12/25 07:18:18;;;;;;;6.93;5.38;;;;;;;-19.02;55.06;100832.19;4941196;29;20058;-81
2021/12/25 07:21:19;;;;;;;4.13;3.75;;;;;;;-18.98;55.39;100823.94;4882509;29;20048;-81
2021/12/25 07:24:04;;;;;;;5.93;5.00;;;;;;;-18.93;54.90;100827.63;4933105;29;20062;-85
2021/12/25 07:26:34;;;;;;;8.40;4.57;;;;;;;-18.77;55.37;100823.47;4906976;29;20086;-84
2021/12/25 07:29:17;;;;;;;15.30;5.53;;;;;;;-18.57;55.28;100828.06;4937777;29;20047;-80
2021/12/25 07:31:43;;;;;;;14.48;7.63;;;;;;;-18.35;54.95;100819.09;4906844;29;20043;-78
2021/12/25 07:34:09;;;;;;;33.17;5.88;;;;;;;-18.12;54.58;100813.69;4937609;29;20494;-85
2021/12/25 07:36:35;;;;;;;13.55;5.63;;;;;;;-17.96;55.07;100803.56;4922230;29;20045;-85
2021/12/25 07:39:01;;;;;;;13.52;4.30;;;;;;;-17.82;54.40;100818.75;4907386;29;20141;-83
2021/12/25 07:41:28;;;;;;;9.52;5.43;;;;;;;-17.72;53.80;100816.78;4906189;29;20051;-84
2021/12/25 07:43:54;;;;;;;10.40;6.78;;;;;;;-17.78;53.24;100805.41;4937592;29;20043;-86
2021/12/25 07:46:39;;;;;;;22.95;10.15;;;;;;;-17.78;53.54;100795.19;4895646;29;20067;-87
2021/12/25 07:49:05;;;;;;;4.10;3.08;;;;;;;-17.72;53.47;100790.38;4890535;29;20039;-85
2021/12/25 07:51:31;;;;;;;12.77;7.88;;;;;;;-17.74;53.56;100791.97;4898047;29;20154;-88
2021/12/25 07:53:57;;;;;;;14.13;8.73;;;;;;;-17.53;53.84;100793.13;4918778;29;20043;-84
2021/12/25 07:56:26;;;;;;;10.32;6.68;;;;;;;-17.41;53.85;100791.28;4936238;29;20074;-87
2021/12/25 07:58:53;;;;;;;22.80;9.55;;;;;;;-17.32;53.50;100802.78;4921534;29;20079;-87
2021/12/25 08:01:19;;;;;;;18.63;9.75;;;;;;;-17.34;53.43;100792.47;4934398;29;20059;-78
2021/12/25 08:03:45;;;;;;;18.08;7.82;;;;;;;-17.25;53.71;100780.22;4934624;29;20048;-79
2021/12/25 08:06:11;;;;;;;18.50;10.32;;;;;;;-17.15;53.92;100773.88;4909663;29;20119;-84
2021/12/25 08:08:37;;;;;;;20.35;10.02;;;;;;;-16.89;55.99;100782.06;4902866;29;20495;-82
2021/12/25 08:11:06;;;;;;;30.02;9.82;;;;;;;-16.81;54.15;100774.00;4902485;29;20209;-83
2021/12/25 08:13:32;;;;;;;19.67;8.57;;;;;;;-16.72;53.83;100778.69;4886530;29;20047;-86
2021/12/25 08:16:00;;;;;;;7.35;5.35;;;;;;;-16.72;53.81;100771.88;4886583;29;20138;-81
2021/12/25 08:18:26;;;;;;;18.08;10.27;;;;;;;-16.55;53.92;100767.63;4886286;29;20040;-92
2021/12/25 08:21:10;;;;;;;12.85;5.72;;;;;;;-16.19;53.63;100768.59;4916304;29;20102;-86
2021/12/25 08:24:12;;;;;;;17.98;9.13;;;;;;;-15.87;52.73;100768.41;4874048;29;20048;-84
2021/12/25 08:27:04;;;;;;;19.77;8.13;;;;;;;-16.00;51.80;100770.38;4957463;29;20063;-82
2021/12/25 08:29:53;;;;;;;9.07;6.68;;;;;;;-15.76;51.95;100750.19;4934598;29;20051;-87
2021/12/25 08:32:42;;;;;;;;;;;;;;;-15.34;51.76;100755.53;4943808;29;20043;-87
2021/12/25 08:35:28;;;;;;;6.38;3.70;;;;;;;-15.37;51.65;100749.41;4940752;29;19923;-85
2021/12/25 08:37:54;;;;;;;16.70;7.25;;;;;;;-15.27;50.93;100743.88;4937243;29;20537;-86
2021/12/25 08:40:21;;;;;;;6.70;5.05;;;;;;;-15.18;50.87;100732.34;4889814;29;20054;-87
2021/12/25 08:42:52;;;;;;;13.38;6.20;;;;;;;-15.09;51.20;100741.25;4953062;29;20050;-84
2021/12/25 08:47:57;;;;;;;14.20;7.90;;;;;;;-14.86;50.48;100714.94;4938998;29;20043;-86
2021/12/25 08:50:23;;;;;;;9.07;4.95;;;;;;;-14.65;50.19;100725.25;4906549;29;20047;-87
2021/12/25 08:52:49;;;;;;;13.65;5.53;;;;;;;-14.62;50.31;100716.81;4921961;29;20058;-84
2021/12/25 08:55:15;;;;;;;13.93;6.88;;;;;;;-14.52;50.32;100712.09;4937664;29;20051;-87
2021/12/25 08:57:41;;;;;;;22.45;6.53;;;;;;;-14.41;50.62;100693.69;4903220;29;20043;-90
2021/12/25 09:00:08;;;;;;;10.80;5.20;;;;;;;-14.24;50.05;100682.44;4897666;29;20559;-87
2021/12/25 09:02:34;;;;;;;14.52;7.28;;;;;;;-14.23;49.78;100679.03;4938207;29;20546;-85
2021/12/25 09:05:00;;;;;;;15.77;6.20;;;;;;;-14.23;49.93;100695.31;4921895;29;20126;-89
2021/12/25 09:07:27;;;;;;;22.73;7.45;;;;;;;-14.41;50.24;100680.84;4922012;29;20141;-85
2021/12/25 09:09:53;;;;;;;23.42;8.57;;;;;;;-14.25;50.88;100676.41;4904686;29;20047;-86
2021/12/25 09:12:21;;;;;;;13.77;6.72;;;;;;;-13.93;50.51;100668.22;4939534;29;20169;-83
2021/12/25 09:14:46;;;;;;;16.63;7.40;;;;;;;-13.92;50.14;100665.72;4908940;29;20098;-85
2021/12/25 09:17:13;;;;;;;20.58;8.95;;;;;;;-13.87;50.27;100643.66;4924661;29;20130;-86
2021/12/25 09:19:39;;;;;;;12.77;6.95;;;;;;;-13.66;50.27;100674.44;4940467;29;20090;-86
2021/12/25 09:22:07;;;;;;;12.15;5.30;;;;;;;-13.52;50.13;100678.41;4923625;29;20069;-87
2021/12/25 09:24:34;;;;;;;12.75;5.95;;;;;;;-13.58;49.87;100672.16;4940047;29;20062;-89
2021/12/25 09:27:00;;;;;;;20.25;7.47;;;;;;;-13.36;49.22;100673.84;4923706;29;20063;-84
2021/12/25 09:29:26;;;;;;;13.02;5.85;;;;;;;-13.61;49.29;100664.31;4939052;29;20042;-87
2021/12/25 09:31:52;;;;;;;6.78;5.10;;;;;;;-13.94;49.66;100656.22;4910891;29;20043;-84
2021/12/25 09:34:18;;;;;;;14.73;6.22;;;;;;;-13.92;50.37;100659.69;4892946;29;20062;-88
2021/12/25 09:36:44;;;;;;;8.93;5.05;;;;;;;-13.81;50.57;100653.28;4906090;29;20054;-90
2021/12/25 09:39:10;;;;;;;11.38;6.07;;;;;;;-13.59;50.88;100657.56;4905769;29;20047;-91
2021/12/25 09:41:37;;;;;;;48.85;7.43;;;;;;;-13.41;50.73;100653.09;4904886;29;20078;-86
2021/12/25 09:44:06;;;;;;;14.35;6.00;;;;;;;-13.05;50.20;100660.34;4906481;29;20404;-94
2021/12/25 09:46:32;;;;;;;11.73;5.78;;;;;;;-13.00;49.64;100633.09;4890947;29;20146;-88
2021/12/25 09:48:58;;;;;;;22.70;8.23;;;;;;;-12.91;49.41;100633.41;4905780;29;20106;-79
2021/12/25 09:51:24;;;;;;;20.58;8.40;;;;;;;-13.04;49.29;100651.84;4937948;29;20071;-81
2021/12/25 09:54:07;;;;;;;17.30;8.32;;;;;;;-12.99;49.77;100660.56;4905285;29;20044;-86
2021/12/25 09:56:35;;;;;;;17.25;7.78;;;;;;;-12.82;49.75;100656.91;4920665;29;20040;-83
2021/12/25 09:59:03;;;;;;;13.93;7.40;;;;;;;-12.63;49.67;100655.84;4906117;29;20054;-86
2021/12/25 10:01:48;;;;;;;38.13;6.25;;;;;;;-12.66;48.97;100666.03;4908966;29;20132;-94
2021/12/25 10:04:45;;;;;;;8.00;5.20;;;;;;;-12.93;48.83;100650.50;4942499;29;20035;-94
2021/12/25 10:07:29;;;;;;;13.68;6.45;;;;;;;-12.92;49.39;100671.97;4914047;29;20058;-93
2021/12/25 10:10:10;;;;;;;11.70;6.50;;;;;;;-12.92;49.57;100651.38;4930012;29;20080;-89
2021/12/25 10:12:43;;;;;;;16.88;7.75;;;;;;;-12.89;49.53;100656.66;4913280;29;20066;-93
2021/12/25 10:15:12;;;;;;;13.38;7.15;;;;;;;-13.12;49.28;100617.25;4875279;29;20051;-91
2021/12/25 10:17:44;;;;;;;;;;;;;;;-13.06;50.16;100649.19;4906408;29;20072;-89
2021/12/25 10:20:20;;;;;;;10.32;5.45;;;;;;;-13.28;49.91;100626.97;4924638;29;19918;-94
2021/12/25 10:22:54;;;;;;;14.43;7.18;;;;;;;-13.17;50.34;100645.34;4875063;29;20047;-88
2021/12/25 10:25:20;;;;;;;10.95;5.85;;;;;;;-13.29;50.21;100638.09;4907483;29;20043;-93
2021/12/25 10:27:52;;;;;;;17.60;7.82;;;;;;;-13.49;50.33;100624.53;4877948;29;20059;-90
2021/12/25 10:30:19;;;;;;;15.05;7.35;;;;;;;-13.66;50.79;100604.16;4880694;29;20039;-94
2021/12/25 10:32:45;;;;;;;17.83;8.35;;;;;;;-13.54;51.27;100631.22;4884852;29;20504;-87
2021/12/25 10:35:15;;;;;;;13.20;7.40;;;;;;;-13.61;51.41;100611.22;4903573;29;20123;-92
2021/12/25 10:37:42;;;;;;;18.23;8.50;;;;;;;-13.56;51.34;100619.97;4916238;29;20053;-95
2021/12/25 10:40:24;;;;;;;10.45;6.57;;;;;;;-13.79;51.56;100613.97;4925500;29;20055;-94
2021/12/25 10:42:53;;;;;;;10.35;6.93;;;;;;;-14.12;51.79;100605.84;4925527;29;20051;-94
2021/12/25 10:45:19;;;;;;;8.95;4.65;;;;;;;-14.08;52.82;100627.41;4900184;29;20089;-94
2021/12/25 10:47:45;;;;;;;13.70;6.75;;;;;;;-14.01;53.05;100606.25;4894513;29;20567;-94
2021/12/25 10:50:15;;;;;;;11.27;6.47;;;;;;;-14.04;52.86;100622.44;4893326;29;20049;-93
2021/12/25 10:52:47;;;;;;;16.85;7.82;;;;;;;-14.16;53.31;100626.22;4894094;29;20507;-91
2021/12/25 10:55:18;;;;;;;17.30;8.20;;;;;;;-14.26;53.58;100613.00;4909428;29;20067;-91
2021/12/25 10:58:03;;;;;;;16.38;7.25;;;;;;;-14.35;53.86;100627.19;4907562;29;20114;-92
2021/12/25 11:00:31;;;;;;;18.17;8.35;;;;;;;-14.41;53.88;100606.38;4893554;29;20135;-93
2021/12/25 11:02:57;;;;;;;10.18;5.72;;;;;;;-14.13;53.91;100642.63;4897770;29;20050;-94
2021/12/25 11:05:24;;;;;;;17.30;8.07;;;;;;;-14.19;53.63;100639.81;4897765;29;20098;-95
2021/12/25 11:08:16;;;;;;;21.33;8.88;;;;;;;-14.36;53.62;100640.84;4926365;29;20051;-85
2021/12/25 11:10:55;;;;;;;12.07;6.07;;;;;;;-14.59;54.11;100625.41;4938084;29;20051;-88
2021/12/25 11:13:31;;;;;;;23.50;9.13;;;;;;;-14.68;54.58;100627.59;4922450;29;20047;-84
2021/12/25 11:16:04;;;;;;;15.95;8.02;;;;;;;-14.67;54.73;100618.19;4924295;29;20519;-84
2021/12/25 11:19:07;;;;;;;13.80;8.18;;;;;;;-14.80;55.53;100627.09;4939137;29;20039;-81
2021/12/25 11:21:44;;;;;;;12.07;7.10;;;;;;;-14.87;55.67;100620.81;4943584;29;20063;-88
2021/12/25 11:24:24;;;;;;;15.02;4.20;;;;;;;-15.07;55.97;100609.72;4943194;29;20051;-82
2021/12/25 11:26:56;;;;;;;16.52;7.30;;;;;;;-15.11;56.34;100625.78;4924417;29;20047;-90
2021/12/25 11:29:24;;;;;;;32.97;8.43;;;;;;;-15.13;57.28;100627.38;4913640;29;20573;-85
2021/12/25 11:31:51;;;;;;;20.67;7.30;;;;;;;-15.08;57.06;100633.63;4940377;29;20051;-84
2021/12/25 11:34:17;;;;;;;27.30;7.82;;;;;;;-15.07;56.40;100625.09;4921962;29;20135;-84
2021/12/25 11:36:48;;;;;;;11.82;5.95;;;;;;;-15.37;56.87;100632.34;4904538;29;20134;-85
2021/12/25 11:39:17;;;;;;;10.88;6.35;;;;;;;-15.36;56.98;100638.34;4921582;29;20522;-84
2021/12/25 11:41:43;;;;;;;18.08;8.10;;;;;;;-15.30;57.65;100636.06;4906175;29;20055;-86
2021/12/25 11:44:34;;;;;;;22.98;7.25;;;;;;;-15.30;57.34;100620.69;4904205;29;20071;-80
2021/12/25 11:47:01;;;;;;;11.55;7.18;;;;;;;-15.38;57.46;100620.34;4921919;29;20048;-84
2021/12/25 11:49:26;;;;;;;19.38;9.30;;;;;;;-15.26;57.13;100625.13;4920090;29;20054;-85
2021/12/25 11:51:52;;;;;;;18.05;8.45;;;;;;;-15.23;57.42;100620.09;4904580;29;20048;-88
2021/12/25 11:54:39;;;;;;;21.77;8.43;;;;;;;-15.27;57.08;100613.09;4920015;29;20059;-84
2021/12/25 11:59:45;;;;;;;28.50;8.93;;;;;;;-15.38;57.46;100629.69;4922551;29;20063;-90
2021/12/25 12:02:15;;;;;;;18.05;9.30;;;;;;;-15.55;57.65;100614.44;4920847;29;20110;-86
2021/12/25 12:04:41;;;;;;;22.92;8.02;;;;;;;-15.52;57.83;100627.41;4877757;29;20057;-79
2021/12/25 12:07:13;;;;;;;20.88;9.27;;;;;;;-15.55;58.22;100608.44;4877065;29;20492;-80
2021/12/25 12:10:00;;;;;;;16.70;7.22;;;;;;;-15.52;57.96;100599.22;4861803;29;20147;-80
2021/12/25 12:12:46;;;;;;;17.80;8.82;;;;;;;-15.65;57.96;100588.38;4878701;29;20056;-81
2021/12/25 12:15:30;;;;;;;14.10;7.93;;;;;;;-15.72;58.57;100587.22;4889752;29;20256;-81
2021/12/25 12:18:42;;;;;;;14.77;7.95;;;;;;;-15.72;58.92;100593.25;4890163;29;20417;-81
2021/12/25 12:21:17;;;;;;;16.48;7.53;;;;;;;-15.70;59.05;100595.88;4876589;29;20053;-82
2021/12/25 12:26:45;;;;;;;17.52;7.88;;;;;;;-15.89;59.58;100594.16;4876523;29;20037;-81
2021/12/25 12:29:12;;;;;;;15.50;6.78;;;;;;;-15.85;59.56;100590.06;4892493;29;20109;-82
2021/12/25 12:31:42;;;;;;;14.95;7.85;;;;;;;-15.75;60.16;100587.09;4891851;29;20085;-81
2021/12/25 12:34:29;;;;;;;17.52;8.65;;;;;;;-15.69;60.11;100598.47;4878468;29;20068;-82
2021/12/25 12:37:14;;;;;;;16.58;8.15;;;;;;;-15.61;59.77;100585.97;4934986;29;20103;-80
2021/12/25 12:39:41;;;;;;;22.40;8.23;;;;;;;-15.59;59.38;100584.38;4918013;29;20070;-81
2021/12/25 12:42:13;;;;;;;19.77;10.23;;;;;;;-15.68;59.92;100584.00;4902605;29;20127;-81
2021/12/25 12:44:39;;;;;;;14.73;7.53;;;;;;;-15.74;59.90;100568.34;4941896;28;20047;-80
2021/12/25 12:47:16;;;;;;;19.23;9.15;;;;;;;-15.62;59.89;100576.53;4957490;29;20159;-82
2021/12/25 12:49:42;;;;;;;23.55;9.32;;;;;;;-15.61;59.43;100585.97;4909874;29;20050;-80
2021/12/25 12:52:21;;;;;;;15.40;9.20;;;;;;;-15.60;59.62;100587.75;4940434;29;20055;-80
2021/12/25 12:54:47;;;;;;;20.88;10.48;;;;;;;-15.60;60.06;100582.63;4925064;29;20055;-80
2021/12/25 12:57:17;;;;;;;25.25;9.88;;;;;;;-15.62;60.01;100566.28;4957617;29;20122;-81
2021/12/25 12:59:45;;;;;;;23.58;11.02;;;;;;;-15.58;59.91;100570.75;4924995;29;20114;-80
2021/12/25 13:02:11;;;;;;;22.27;11.40;;;;;;;-15.66;60.06;100555.88;4924873;29;20051;-80
2021/12/25 13:04:50;;;;;;;30.52;10.63;;;;;;;-15.66;60.11;100559.31;4941033;29;20053;-81